createdAt,value
2023-01-21T00:04:47.300Z,20.13
2023-01-21T00:09:48.748Z,19.52
2023-01-21T00:14:50.128Z,20.10
2023-01-21T00:19:51.585Z,19.13
2023-01-21T00:24:53.019Z,18.48
2023-01-21T00:29:54.395Z,18.70
2023-01-21T00:34:55.795Z,20.60
2023-01-21T00:39:57.179Z,17.42
2023-01-21T00:44:58.544Z,18.92
2023-01-21T00:50:00.013Z,17.40
2023-01-21T00:55:01.409Z,14.38
2023-01-21T01:00:02.933Z,19.02
2023-01-21T01:05:05.324Z,14.50
2023-01-21T01:10:07.136Z,17.77
2023-01-21T01:15:09.349Z,16.38
2023-01-21T01:20:11.329Z,16.52
2023-01-21T01:25:12.772Z,19.48
2023-01-21T01:30:14.531Z,18.58
2023-01-21T01:35:16.160Z,17.20
2023-01-21T01:40:18.617Z,21.98
2023-01-21T01:45:21.530Z,20.70
2023-01-21T01:50:23.018Z,19.50
2023-01-21T01:55:25.101Z,17.65
2023-01-21T02:00:28.319Z,19.08
2023-01-21T02:05:29.843Z,16.88
2023-01-21T02:10:31.204Z,17.65
2023-01-21T02:15:48.921Z,14.88
2023-01-21T02:20:56.051Z,18.20
2023-01-21T02:26:20.313Z,15.70
2023-01-21T02:31:48.821Z,18.90
2023-01-21T02:37:00.503Z,18.55
2023-01-21T02:42:23.796Z,14.63
2023-01-21T02:47:43.747Z,17.35
2023-01-21T02:52:45.223Z,15.98
2023-01-21T02:57:56.034Z,16.25
2023-01-21T03:03:33.993Z,13.85
2023-01-21T03:08:46.132Z,15.88
2023-01-21T03:14:00.352Z,14.27
2023-01-21T03:19:06.469Z,14.30
2023-01-21T03:24:09.436Z,14.82
2023-01-21T03:29:15.837Z,20.58
2023-01-21T03:34:20.070Z,19.00
2023-01-21T03:39:33.930Z,14.90
2023-01-21T03:44:35.913Z,14.50
2023-01-21T03:49:43.955Z,17.67
2023-01-21T03:54:47.745Z,13.80
2023-01-21T03:59:49.194Z,15.52
2023-01-21T04:04:50.583Z,23.75
2023-01-21T04:09:52.061Z,15.98
2023-01-21T04:14:53.542Z,16.40
2023-01-21T04:19:55.035Z,15.90
2023-01-21T04:24:56.719Z,15.63
2023-01-21T04:29:58.107Z,15.65
2023-01-21T04:34:59.558Z,15.25
2023-01-21T04:40:01.039Z,20.20
2023-01-21T04:45:02.584Z,16.98
2023-01-21T04:50:04.262Z,15.73
2023-01-21T04:55:06.807Z,14.35
2023-01-21T05:00:09.080Z,14.63
2023-01-21T05:05:10.564Z,14.27
2023-01-21T05:10:16.418Z,15.13
2023-01-21T05:15:18.030Z,14.15
2023-01-21T05:20:19.746Z,15.75
2023-01-21T05:25:21.348Z,15.60
2023-01-21T05:30:23.024Z,13.80
2023-01-21T05:35:24.654Z,13.90
2023-01-21T05:40:26.047Z,15.93
2023-01-21T05:45:27.455Z,15.02
2023-01-21T05:50:28.906Z,15.48
2023-01-21T05:55:30.446Z,15.60
2023-01-21T06:00:31.904Z,17.35
2023-01-21T06:05:33.306Z,15.63
2023-01-21T06:10:35.031Z,17.30
2023-01-21T06:15:36.480Z,18.60
2023-01-21T06:20:38.786Z,16.40
2023-01-21T06:25:40.358Z,21.65
2023-01-21T06:30:41.739Z,17.63
2023-01-21T06:35:43.167Z,18.75
2023-01-21T06:40:44.593Z,16.25
2023-01-21T06:45:46.121Z,16.90
2023-01-21T06:50:47.515Z,17.05
2023-01-21T06:55:48.932Z,22.02
2023-01-21T07:00:50.318Z,18.20
2023-01-21T07:05:52.161Z,19.65
2023-01-21T07:10:55.696Z,19.77
2023-01-21T07:16:01.077Z,21.85
2023-01-21T07:21:02.835Z,20.88
2023-01-21T07:26:04.880Z,20.13
2023-01-21T07:31:06.363Z,19.52
2023-01-21T07:36:08.323Z,21.73
2023-01-21T07:41:09.712Z,25.35
2023-01-21T07:46:11.325Z,24.83
2023-01-21T07:51:12.772Z,22.65
2023-01-21T07:56:14.530Z,21.73
2023-01-21T08:01:15.963Z,25.83
2023-01-21T08:06:17.365Z,22.52
2023-01-21T08:11:18.923Z,22.85
2023-01-21T08:16:20.541Z,24.75
2023-01-21T08:21:21.989Z,31.60
2023-01-21T08:26:25.588Z,25.17
2023-01-21T08:31:27.402Z,25.98
2023-01-21T08:36:29.928Z,29.55
2023-01-21T08:41:32.246Z,28.67
2023-01-21T08:46:34.323Z,25.98
2023-01-21T08:51:35.753Z,26.27
2023-01-21T08:56:37.238Z,26.75
2023-01-21T09:01:38.692Z,27.98
2023-01-21T09:06:40.820Z,32.60
2023-01-21T09:11:43.026Z,28.35
2023-01-21T09:16:45.216Z,28.95
2023-01-21T09:21:46.893Z,28.67
2023-01-21T09:26:51.406Z,28.33
2023-01-21T09:31:58.964Z,26.98
2023-01-21T09:37:00.507Z,31.08
2023-01-21T09:42:02.410Z,27.17
2023-01-21T09:47:20.978Z,24.42
2023-01-21T09:52:42.625Z,26.25
2023-01-21T09:58:07.773Z,26.15
2023-01-21T10:03:15.485Z,30.00
2023-01-21T10:08:38.892Z,35.85
2023-01-21T10:13:56.168Z,37.55
2023-01-21T10:19:01.830Z,34.88
2023-01-21T10:24:15.907Z,32.78
2023-01-21T10:29:21.234Z,29.65
2023-01-21T10:34:22.714Z,30.42
2023-01-21T10:39:42.589Z,27.48
2023-01-21T10:44:59.278Z,24.70
2023-01-21T10:50:04.524Z,21.13
2023-01-21T10:55:47.178Z,20.52
2023-01-21T11:00:52.151Z,17.60
2023-01-21T11:05:57.559Z,21.40
2023-01-21T11:11:03.681Z,23.88
2023-01-21T11:16:05.580Z,23.10
2023-01-21T11:21:21.517Z,19.13
2023-01-21T11:26:35.047Z,21.33
2023-01-21T11:31:41.399Z,22.65
2023-01-21T11:37:07.472Z,21.52
2023-01-21T11:42:51.776Z,25.33
2023-01-21T11:47:53.711Z,20.73
2023-01-21T11:53:07.647Z,16.10
2023-01-21T11:58:39.399Z,17.27
2023-01-21T12:03:45.771Z,18.52
2023-01-21T12:08:51.165Z,17.85
2023-01-21T12:14:11.547Z,17.95
2023-01-21T12:19:34.659Z,16.35
2023-01-21T12:25:09.041Z,17.10
2023-01-21T12:30:22.691Z,15.02
2023-01-21T12:35:43.376Z,13.68
2023-01-21T12:40:52.733Z,13.43
2023-01-21T12:46:14.655Z,14.17
2023-01-21T12:51:27.888Z,11.57
2023-01-21T12:56:48.082Z,13.25
2023-01-21T13:07:31.353Z,17.30
2023-01-21T13:12:35.737Z,20.42
2023-01-21T13:17:41.993Z,19.23
2023-01-21T13:23:05.365Z,14.38
2023-01-21T13:28:20.838Z,21.65
2023-01-21T13:33:28.050Z,17.40
2023-01-21T13:39:00.881Z,17.10
2023-01-21T13:44:11.698Z,17.85
2023-01-21T13:49:32.260Z,19.67
2023-01-21T13:55:19.167Z,21.98
2023-01-21T14:00:47.989Z,22.05
2023-01-21T14:06:01.630Z,18.30
2023-01-21T14:11:24.941Z,22.80
2023-01-21T14:17:08.015Z,23.52
2023-01-21T14:22:31.244Z,21.50
2023-01-21T14:28:02.103Z,23.83
2023-01-21T14:33:15.154Z,25.45
2023-01-21T14:38:39.311Z,20.58
2023-01-21T14:43:40.858Z,22.40
2023-01-21T14:48:55.409Z,21.58
2023-01-21T14:54:02.726Z,21.40
2023-01-21T14:59:39.860Z,23.35
2023-01-21T15:04:55.894Z,21.30
2023-01-21T15:10:02.406Z,18.90
2023-01-21T15:15:41.343Z,18.75
2023-01-21T15:20:42.819Z,21.17
2023-01-21T15:26:04.785Z,22.98
2023-01-21T15:36:20.542Z,19.23
2023-01-21T15:41:30.074Z,18.52
2023-01-21T15:47:00.961Z,25.10
2023-01-21T15:52:21.216Z,17.60
2023-01-21T16:02:55.793Z,19.85
2023-01-21T16:08:16.706Z,16.10
2023-01-21T16:13:52.227Z,14.85
2023-01-21T16:19:19.614Z,24.20
2023-01-21T16:24:24.148Z,19.67
2023-01-21T16:29:25.694Z,20.25
2023-01-21T16:34:36.395Z,15.07
2023-01-21T16:39:39.168Z,14.27
2023-01-21T16:44:43.699Z,16.38
2023-01-21T16:49:45.082Z,15.23
2023-01-21T16:54:48.395Z,14.85
2023-01-21T16:59:59.959Z,14.51
2023-01-21T17:05:03.302Z,16.88
2023-01-21T17:10:29.209Z,19.27
2023-01-21T17:15:38.003Z,18.10
2023-01-21T17:20:59.972Z,17.42
2023-01-21T17:26:20.808Z,18.10
2023-01-21T17:31:28.160Z,20.90
2023-01-21T17:36:32.649Z,17.80
2023-01-21T17:41:41.514Z,22.48
2023-01-21T17:46:47.939Z,21.67
2023-01-21T17:51:50.484Z,20.63
2023-01-21T17:56:54.873Z,18.55
2023-01-21T18:01:56.424Z,20.98
2023-01-21T18:06:58.202Z,20.70
2023-01-21T18:11:59.604Z,17.65
2023-01-21T18:17:01.009Z,19.80
2023-01-21T18:22:05.407Z,18.35
2023-01-21T18:27:11.264Z,21.30
2023-01-21T18:32:22.013Z,18.00
2023-01-21T18:37:26.979Z,22.08
2023-01-21T18:42:28.381Z,21.52
2023-01-21T18:47:30.058Z,19.33
2023-01-21T18:52:31.618Z,19.40
2023-01-21T18:57:33.422Z,20.40
2023-01-21T19:02:35.722Z,20.55
2023-01-21T19:07:37.090Z,19.65
2023-01-21T19:12:38.668Z,21.30
2023-01-21T19:17:40.109Z,21.15
2023-01-21T19:22:41.607Z,24.05
2023-01-21T19:27:46.297Z,31.10
2023-01-21T19:32:49.182Z,21.05
2023-01-21T19:37:50.758Z,33.67
2023-01-21T19:42:53.057Z,27.88
2023-01-21T19:47:55.576Z,36.40
2023-01-21T19:52:57.012Z,28.58
2023-01-21T19:58:04.984Z,22.95
2023-01-21T20:03:06.345Z,24.20
2023-01-21T20:08:20.288Z,25.23
2023-01-21T20:13:24.606Z,25.27
2023-01-21T20:18:28.743Z,21.42
2023-01-21T20:23:30.134Z,26.35
2023-01-21T20:28:41.342Z,23.58
2023-01-21T20:33:45.182Z,22.70
2023-01-21T20:38:46.701Z,23.17
2023-01-21T20:43:48.190Z,29.48
2023-01-21T20:48:50.005Z,24.58
2023-01-21T20:53:51.542Z,23.08
2023-01-21T20:58:53.066Z,23.80
2023-01-21T21:03:54.809Z,26.88
2023-01-21T21:08:56.242Z,25.52
2023-01-21T21:13:57.775Z,24.17
2023-01-21T21:18:59.627Z,25.65
2023-01-21T21:24:01.253Z,26.40
2023-01-21T21:29:14.522Z,24.85
2023-01-21T21:34:16.006Z,28.75
2023-01-21T21:39:17.393Z,24.98
2023-01-21T21:44:19.031Z,31.05
2023-01-21T21:49:21.420Z,32.40
2023-01-21T21:54:22.948Z,30.65
2023-01-21T21:59:24.358Z,32.13
2023-01-21T22:04:25.954Z,33.80
2023-01-21T22:09:27.342Z,29.67
2023-01-21T22:14:28.812Z,31.08
2023-01-21T22:19:30.335Z,30.67
2023-01-21T22:24:31.811Z,29.85
2023-01-21T22:29:33.222Z,33.55
2023-01-21T22:34:35.233Z,36.88
2023-01-21T22:39:36.687Z,30.77
2023-01-21T22:44:38.377Z,30.92
2023-01-21T22:49:39.935Z,31.42
2023-01-21T22:54:41.234Z,33.05
2023-01-21T22:59:42.731Z,34.10
2023-01-21T23:04:47.277Z,33.65
2023-01-21T23:09:50.492Z,30.13
2023-01-21T23:14:51.932Z,29.13
2023-01-21T23:19:53.872Z,32.72
2023-01-21T23:24:55.297Z,32.10
2023-01-21T23:29:56.818Z,28.40
2023-01-21T23:34:58.220Z,32.75
2023-01-21T23:39:59.657Z,24.63
2023-01-21T23:45:01.106Z,27.67
2023-01-21T23:50:02.695Z,26.90
2023-01-21T23:55:06.440Z,25.05
